Flight Track Log - Related Links

Times and Time Zones

All times are in EDT time to prevent confusion due to time zone crossing. See the ASQ5685 flight status page for this flight to view local times or setup timezone preferences in your user account.

Time Position Orientation Groundspeed Altitude Reporting Facility
EDT Latitude Longitude Course Direction KTS MPH feet Rate Location/Type
Sun 09:40:55 AM 33.6331 -84.3556 71° East 419 482 3,000  Level Atlanta Center
Sun 09:41:55 AM 33.6333 -84.2683 90° East 266 306 5,400 2,400 Climbing Atlanta Center
Sun 09:42:55 AM 33.6314 -84.1686 91° East 281 323 7,800 2,250 Climbing Atlanta Center
Sun 09:43:00 AM 33.9298 -84.0791 48° Northeast  Level Estimated
Sun 09:43:55 AM 33.6481 -84.0861 76° East 287 330 9,900  Level Atlanta Center
Sun 09:44:00 AM 34.0029 -83.9916 53° Northeast  Level Estimated
Sun 09:44:55 AM 33.7044 -84.0089 49° Northeast 293 337 11,400  Level Atlanta Center
Sun 09:45:00 AM 34.0364 -83.8740 71° East  Level FlightAware Approximate
Sun 09:45:55 AM 33.7669 -83.9264 48° Northeast 322 371 12,600  Level Atlanta Center
Sun 09:46:00 AM 34.0699 -83.7564 71° East  Level FlightAware Approximate
Sun 09:46:55 AM 33.8336 -83.8386 48° Northeast 349 402 13,900  Level Atlanta Center
Sun 09:47:55 AM 33.9025 -83.7536 46° Northeast 349 402 15,300 1,350 Climbing Atlanta Center
Sun 09:48:55 AM 33.9669 -83.6556 52° Northeast 363 418 16,600 1,300 Climbing Atlanta Center
Sun 09:49:55 AM 34.0333 -83.5500 53° Northeast 363 418 17,900 1,200 Climbing Atlanta Center
Sun 09:50:55 AM 34.0975 -83.4517 52° Northeast 368 423 19,000 1,150 Climbing Atlanta Center
Sun 09:51:55 AM 34.1575 -83.3533 54° Northeast 361 415 20,200 850 Climbing Atlanta Center
Sun 09:52:55 AM 34.2194 -83.2475 55° Northeast 366 421 20,700 500 Climbing Atlanta Center
Sun 09:53:55 AM 34.2897 -83.1436 51° Northeast 383 441 21,200 600 Climbing Atlanta Center
Sun 09:54:55 AM 34.3558 -83.0347 54° Northeast 394 453 21,900 650 Climbing Atlanta Center
Sun 09:55:55 AM 34.4217 -82.9258 54° Northeast 400 460 22,500 600 Climbing Atlanta Center
Sun 09:56:55 AM 34.4894 -82.8139 54° Northeast 400 460 23,100 550 Climbing Atlanta Center
Sun 09:57:55 AM 34.5572 -82.7019 54° Northeast 412 474 23,600 500 Climbing Atlanta Center
Sun 09:58:55 AM 34.6289 -82.5922 52° Northeast 412 474 24,100 500 Climbing Atlanta Center
Sun 09:59:55 AM 34.6964 -82.4850 53° Northeast 412 474 24,600 500 Climbing Atlanta Center
Sun 10:00:55 AM 34.7658 -82.3700 54° Northeast 417 480 25,100 500 Climbing Atlanta Center
Sun 10:01:55 AM 34.8331 -82.2572 54° Northeast 417 480 25,600 500 Climbing Atlanta Center
Sun 10:02:55 AM 34.9025 -82.1444 53° Northeast 417 480 26,100 500 Climbing Atlanta Center
Sun 10:03:55 AM 34.9656 -82.0467 52° Northeast 412 474 26,600 500 Climbing Atlanta Center
Sun 10:04:55 AM 35.0325 -81.9333 54° Northeast 412 474 27,100 500 Climbing Atlanta Center
Sun 10:05:55 AM 35.0953 -81.8150 57° Northeast 412 474 27,600 500 Climbing Atlanta Center
Sun 10:06:55 AM 35.1636 -81.6861 57° Northeast 412 474 28,100 500 Climbing Atlanta Center
Sun 10:07:55 AM 35.2239 -81.5675 58° Northeast 412 474 28,600 500 Climbing Atlanta Center
Sun 10:08:55 AM 35.2842 -81.4536 57° Northeast 407 468 29,100 450 Climbing Atlanta Center
Sun 10:09:55 AM 35.3442 -81.3372 58° Northeast 407 468 29,500 400 Climbing Atlanta Center
Sun 10:10:55 AM 35.4042 -81.2206 58° Northeast 407 468 29,900 400 Climbing Atlanta Center
Sun 10:11:55 AM 35.4642 -81.1039 58° Northeast 402 463 30,300 400 Climbing Atlanta Center
Sun 10:12:55 AM 35.5258 -80.9869 57° Northeast 402 463 30,700 350 Climbing Atlanta Center
Sun 10:13:55 AM 35.5856 -80.8722 57° Northeast 402 463 31,000 150 Climbing Atlanta Center
Sun 10:14:55 AM 35.6472 -80.7547 57° Northeast 402 463 31,000  Level Atlanta Center
Sun 10:15:55 AM 35.7067 -80.6375 58° Northeast 402 463 31,000  Level Atlanta Center
Sun 10:18:02 AM 35.8300 -80.3956 58° Northeast 417 480 31,000  Level Washington Center
Sun 10:19:03 AM 35.8911 -80.2736 58° Northeast 417 480 31,000  Level Washington Center
Sun 10:20:03 AM 35.9500 -80.1542 59° Northeast 412 474 31,000  Level Washington Center
Sun 10:21:04 AM 36.0194 -80.0322 55° Northeast 407 468 31,000  Level Washington Center
Sun 10:22:02 AM 36.0822 -79.9125 57° Northeast 401 461 31,000  Level Washington Center
Sun 10:23:02 AM 36.1489 -79.8003 54° Northeast 406 467 31,000  Level Washington Center
Sun 10:24:03 AM 36.2089 -79.6928 55° Northeast 414 476 31,000  Level Washington Center
Sun 10:25:03 AM 36.2778 -79.5650 56° Northeast 404 465 31,000  Level Washington Center
Sun 10:26:04 AM 36.3419 -79.4547 54° Northeast 404 465 31,000  Level Washington Center
Sun 10:27:04 AM 36.4064 -79.3367 56° Northeast 409 471 31,000  Level Washington Center
Sun 10:28:02 AM 36.4683 -79.2208 56° Northeast 409 471 31,000 -305 Level Washington Center
Sun 10:29:02 AM 36.5383 -79.1103 52° Northeast 409 471 30,400 -1,339 Descending Washington Center
Sun 10:30:03 AM 36.6067 -78.9867 55° Northeast 418 481 28,300 -1,967 Descending Washington Center
Sun 10:31:04 AM 36.6661 -78.8703 57° Northeast 431 496 26,400 -1,664 Descending Washington Center
Sun 10:32:02 AM 36.7364 -78.7408 56° Northeast 438 504 25,000 -706 Descending Washington Center
Sun 10:33:03 AM 36.8128 -78.6064 55° Northeast 438 504 25,000 -595 Level Washington Center
Sun 10:34:03 AM 36.9011 -78.5008 44° Northeast 433 498 23,800 -843 Descending Washington Center
Sun 10:35:04 AM 36.9911 -78.4028 41° Northeast 423 487 23,300 -504 Descending Washington Center
Sun 10:36:02 AM 37.0869 -78.3153 36° Northeast 423 487 22,800 -504 Descending Washington Center
Sun 10:37:03 AM 37.1825 -78.2406 32° Northeast 430 495 22,300 -541 Descending Washington Center
Sun 10:38:04 AM 37.2864 -78.1631 31° Northeast 436 502 21,700 -706 Descending Washington Center
Sun 10:39:02 AM 37.3989 -78.0728 33° Northeast 436 502 20,900 -706 Descending Washington Center
Sun 10:40:03 AM 37.5028 -77.9897 32° Northeast 436 502 20,300 -545 Descending Washington Center
Sun 10:41:03 AM 37.6044 -77.9092 32° Northeast 436 502 19,800 -694 Descending Washington Center
Sun 10:42:04 AM 37.7061 -77.8283 32° Northeast 436 502 18,900 -1,412 Descending Washington Center
Sun 10:43:02 AM 37.8056 -77.7469 33° Northeast 436 502 17,000 -1,966 Descending Washington Center
Sun 10:44:03 AM 37.9050 -77.6708 31° Northeast 425 489 15,000 -1,967 Descending Washington Center
Sun 10:45:04 AM 38.0003 -77.5919 33° Northeast 419 482 13,000 -1,916 Descending Washington Center
Sun 10:46:02 AM 38.0825 -77.5306 30° Northeast 403 464 11,200 -1,525 Descending Washington Center
Sun 10:47:02 AM 38.1650 -77.4614 33° Northeast 374 430 10,000 -595 Descending Washington Center
Sun 10:48:03 AM 38.2367 -77.4158 27° Northeast 324 373 10,000 -149 Level Washington Center
Sun 10:49:03 AM 38.3139 -77.4097 North 275 316 9,700 -843 Descending Washington Center
Sun 10:50:04 AM 38.3906 -77.4433 341° North 270 311 8,300 -1,377 Descending Washington Center
Sun 10:51:05 AM 38.4675 -77.4478 357° North 275 316 6,900 -1,271 Descending Washington Center
Sun 10:52:02 AM 38.5447 -77.4444 North 275 316 5,800 -1,017 Descending Washington Center
Sun 10:53:03 AM 38.6136 -77.4461 359° North 264 304 4,900 -1,033 Descending Washington Center
Sun 10:54:04 AM 38.6739 -77.4425 North 241 277 3,700 -958 Descending Washington Center
Sun 10:55:02 AM 38.7325 -77.4411 North 224 258 3,000 -655 Descending Washington Center
Sun 10:56:03 AM 38.7928 -77.4428 359° North 211 243 2,400 -585 Descending Washington Center
Sun 10:57:05 AM 38.8500 -77.4333 North 177 204 1,800 -738 Descending Potomac TRACON
Sun 10:58:05 AM 38.9000 -77.4333 360° North 148 170 900 -900 Descending Potomac TRACON

Login

Don't have an account? Register now (free) for customized features, flight alerts, and more!